createdAt,value
2022-10-24T00:02:53.001Z,14.43
2022-10-24T00:07:58.706Z,14.40
2022-10-24T00:13:03.395Z,14.40
2022-10-24T00:18:10.792Z,12.17
2022-10-24T00:23:15.728Z,13.77
2022-10-24T00:28:20.543Z,14.10
2022-10-24T00:33:28.599Z,13.83
2022-10-24T00:38:33.402Z,13.27
2022-10-24T00:43:38.161Z,14.53
2022-10-24T00:48:49.694Z,13.00
2022-10-24T00:59:04.879Z,13.60
2022-10-24T01:04:13.980Z,12.07
2022-10-24T01:09:33.994Z,14.03
2022-10-24T01:14:48.341Z,14.47
2022-10-24T01:20:26.147Z,15.30
2022-10-24T01:25:43.746Z,13.17
2022-10-24T01:30:55.469Z,14.17
2022-10-24T01:36:08.897Z,13.57
2022-10-24T01:41:16.726Z,12.90
2022-10-24T01:46:28.845Z,15.17
2022-10-24T01:51:36.459Z,16.50
2022-10-24T01:56:41.471Z,17.33
2022-10-24T02:01:48.959Z,17.93
2022-10-24T02:06:55.020Z,17.97
2022-10-24T02:12:01.876Z,16.70
2022-10-24T02:17:09.550Z,18.63
2022-10-24T02:22:22.089Z,15.70
2022-10-24T02:27:31.971Z,15.83
2022-10-24T02:32:42.825Z,15.73
2022-10-24T02:37:52.887Z,16.20
2022-10-24T02:43:01.175Z,16.47
2022-10-24T02:48:11.483Z,17.13
2022-10-24T02:53:17.868Z,17.90
2022-10-24T02:58:22.657Z,17.60
2022-10-24T03:03:30.034Z,18.27
2022-10-24T03:08:34.823Z,17.13
2022-10-24T03:13:39.857Z,17.33
2022-10-24T03:18:47.265Z,18.07
2022-10-24T03:23:52.497Z,17.20
2022-10-24T03:28:57.253Z,15.90
2022-10-24T03:34:04.647Z,15.17
2022-10-24T03:39:09.872Z,14.30
2022-10-24T03:44:14.820Z,14.33
2022-10-24T03:49:22.261Z,14.77
2022-10-24T03:54:27.338Z,13.57
2022-10-24T03:59:32.678Z,14.10
2022-10-24T04:04:40.119Z,14.47
2022-10-24T04:09:45.152Z,13.17
2022-10-24T04:14:49.832Z,12.03
2022-10-24T04:19:57.666Z,11.60
2022-10-24T04:25:02.613Z,12.07
2022-10-24T04:30:10.668Z,12.50
2022-10-24T04:35:21.490Z,12.13
2022-10-24T04:40:26.546Z,12.10
2022-10-24T04:45:31.449Z,12.17
2022-10-24T04:50:39.468Z,11.47
2022-10-24T04:55:44.407Z,12.77
2022-10-24T05:00:50.331Z,12.53
2022-10-24T05:06:00.284Z,12.77
2022-10-24T05:11:05.315Z,12.30
2022-10-24T05:16:10.242Z,12.80
2022-10-24T05:21:17.715Z,13.17
2022-10-24T05:26:22.935Z,11.27
2022-10-24T05:31:27.906Z,12.90
2022-10-24T05:36:35.567Z,12.73
2022-10-24T05:41:44.685Z,23.93
2022-10-24T05:46:52.677Z,16.13
2022-10-24T05:52:00.047Z,15.20
2022-10-24T05:57:05.005Z,12.97
2022-10-24T06:02:10.420Z,12.53
2022-10-24T06:07:17.931Z,11.60
2022-10-24T06:12:24.802Z,10.47
2022-10-24T06:17:29.825Z,11.77
2022-10-24T06:22:37.560Z,11.23
2022-10-24T06:27:42.953Z,11.27
2022-10-24T06:32:48.017Z,11.23
2022-10-24T06:37:55.742Z,11.80
2022-10-24T06:43:00.923Z,11.87
2022-10-24T06:48:06.131Z,10.83
2022-10-24T06:53:16.074Z,9.70
2022-10-24T06:58:22.974Z,10.50
2022-10-24T07:03:27.769Z,10.23
2022-10-24T07:08:35.686Z,8.50
2022-10-24T07:13:40.918Z,8.03
2022-10-24T07:18:46.883Z,9.20
2022-10-24T07:23:54.687Z,10.53
2022-10-24T07:29:03.445Z,9.50
2022-10-24T07:34:10.912Z,9.30
2022-10-24T07:39:18.526Z,8.60
2022-10-24T07:44:25.715Z,8.43
2022-10-24T07:49:32.923Z,8.57
2022-10-24T07:54:41.307Z,7.97
2022-10-24T07:59:46.151Z,7.03
2022-10-24T08:04:50.972Z,7.23
2022-10-24T08:09:59.121Z,6.83
2022-10-24T08:15:03.825Z,7.43
2022-10-24T08:20:11.057Z,7.73
2022-10-24T08:25:18.708Z,7.23
2022-10-24T08:30:24.696Z,7.70
2022-10-24T08:35:29.510Z,6.93
2022-10-24T08:40:36.969Z,5.97
2022-10-24T08:45:52.705Z,6.10
2022-10-24T08:51:05.506Z,6.27
2022-10-24T08:56:15.145Z,5.53
2022-10-24T09:01:30.218Z,6.10
2022-10-24T09:06:36.194Z,7.10
2022-10-24T09:11:49.924Z,5.77
2022-10-24T09:16:59.292Z,5.60
2022-10-24T09:22:05.290Z,5.97
2022-10-24T09:27:17.643Z,6.23
2022-10-24T09:32:26.886Z,6.67
2022-10-24T09:37:37.713Z,6.23
2022-10-24T09:42:57.258Z,7.33
2022-10-24T09:48:06.047Z,5.87
2022-10-24T09:53:25.476Z,6.20
2022-10-24T09:58:35.774Z,6.90
2022-10-24T10:03:41.001Z,6.07
2022-10-24T10:08:53.390Z,6.10
2022-10-24T10:14:20.428Z,5.10
2022-10-24T10:19:25.769Z,5.77
2022-10-24T10:24:40.742Z,5.67
2022-10-24T10:29:48.254Z,4.90
2022-10-24T10:35:00.591Z,6.10
2022-10-24T10:40:19.213Z,4.93
2022-10-24T10:45:37.779Z,4.77
2022-10-24T10:50:48.288Z,5.30
2022-10-24T10:56:04.962Z,5.30
2022-10-24T11:01:23.042Z,4.60
2022-10-24T11:06:44.336Z,4.57
2022-10-24T11:11:54.840Z,5.27
2022-10-24T11:17:11.086Z,4.70
2022-10-24T11:22:23.033Z,4.37
2022-10-24T11:27:34.335Z,3.90
2022-10-24T11:32:47.769Z,4.03
2022-10-24T11:38:06.852Z,3.67
2022-10-24T11:43:21.979Z,3.13
2022-10-24T11:48:37.267Z,4.40
2022-10-24T11:53:57.451Z,4.83
2022-10-24T11:59:04.601Z,4.20
2022-10-24T12:04:47.859Z,4.20
2022-10-24T12:10:14.110Z,4.93
2022-10-24T12:15:40.501Z,4.13
2022-10-24T12:20:54.027Z,3.50
2022-10-24T12:26:07.462Z,4.57
2022-10-24T12:31:25.323Z,4.27
2022-10-24T12:37:01.458Z,4.63
2022-10-24T12:42:17.452Z,4.17
2022-10-24T12:47:43.823Z,4.93
2022-10-24T12:53:07.284Z,4.37
2022-10-24T12:58:27.545Z,5.33
2022-10-24T13:03:56.180Z,3.97
2022-10-24T13:09:16.366Z,3.73
2022-10-24T13:14:58.549Z,2.33
2022-10-24T13:20:20.565Z,1.80
2022-10-24T13:25:34.078Z,1.70
2022-10-24T13:30:39.940Z,1.40
2022-10-24T13:35:47.759Z,1.40
2022-10-24T13:40:53.338Z,1.70
2022-10-24T13:46:12.752Z,1.43
2022-10-24T13:51:28.507Z,1.20
2022-10-24T13:56:38.974Z,0.77
2022-10-24T14:01:45.160Z,1.00
2022-10-24T14:06:52.608Z,0.97
2022-10-24T14:11:59.502Z,0.80
2022-10-24T14:17:23.292Z,0.87
2022-10-24T14:22:40.011Z,1.10
2022-10-24T14:27:45.266Z,0.80
2022-10-24T14:32:50.837Z,0.93
2022-10-24T14:38:00.930Z,0.90
2022-10-24T14:43:06.982Z,1.10
2022-10-24T14:48:24.425Z,0.97
2022-10-24T14:53:32.364Z,0.93
2022-10-24T14:58:39.443Z,1.17
2022-10-24T15:03:58.417Z,1.10
2022-10-24T15:09:08.765Z,1.27
2022-10-24T15:14:36.235Z,1.10
2022-10-24T15:19:56.282Z,0.80
2022-10-24T15:25:05.362Z,1.40
2022-10-24T15:30:16.039Z,1.37
2022-10-24T15:35:23.533Z,1.53
2022-10-24T15:40:33.771Z,1.70
2022-10-24T15:45:38.499Z,1.20
2022-10-24T15:50:48.014Z,1.70
2022-10-24T15:55:55.399Z,1.50
2022-10-24T16:01:02.499Z,1.30
2022-10-24T16:06:07.766Z,1.10
2022-10-24T16:11:15.271Z,1.27
2022-10-24T16:16:20.044Z,1.20
2022-10-24T16:21:25.136Z,1.17
2022-10-24T16:26:32.614Z,1.47
2022-10-24T16:31:37.423Z,1.40
2022-10-24T16:36:43.161Z,1.53
2022-10-24T16:41:50.541Z,1.23
2022-10-24T16:46:55.754Z,1.73
2022-10-24T16:52:00.716Z,1.70
2022-10-24T16:57:08.142Z,1.67
2022-10-24T17:02:14.772Z,1.90
2022-10-24T17:07:19.825Z,2.00
2022-10-24T17:12:27.626Z,2.30
2022-10-24T17:17:33.792Z,4.43
2022-10-24T17:22:40.372Z,2.00
2022-10-24T17:27:48.583Z,2.00
2022-10-24T17:32:53.901Z,2.37
2022-10-24T17:38:17.934Z,2.43
2022-10-24T17:43:27.378Z,2.93
2022-10-24T17:48:32.522Z,2.17
2022-10-24T17:53:37.286Z,2.50
2022-10-24T17:58:44.685Z,2.80
2022-10-24T18:03:49.501Z,2.23
2022-10-24T18:08:55.885Z,2.60
2022-10-24T18:14:03.454Z,2.20
2022-10-24T18:19:08.828Z,2.43
2022-10-24T18:24:13.644Z,2.40
2022-10-24T18:29:21.177Z,2.83
2022-10-24T18:34:26.005Z,2.53
2022-10-24T18:39:31.356Z,2.37
2022-10-24T18:44:39.988Z,2.60
2022-10-24T18:49:47.029Z,2.87
2022-10-24T18:55:04.064Z,2.53
2022-10-24T19:00:21.439Z,2.23
2022-10-24T19:05:42.159Z,2.50
2022-10-24T19:10:48.792Z,2.80
2022-10-24T19:16:00.307Z,2.97
2022-10-24T19:21:06.580Z,2.23
2022-10-24T19:26:16.370Z,2.73
2022-10-24T19:31:26.688Z,2.50
2022-10-24T19:36:34.468Z,3.20
2022-10-24T19:41:39.495Z,3.50
2022-10-24T19:46:46.992Z,2.80
2022-10-24T19:51:54.657Z,2.90
2022-10-24T19:56:59.409Z,2.70
2022-10-24T20:02:10.011Z,3.43
2022-10-24T20:07:17.514Z,3.20
2022-10-24T20:12:23.656Z,3.03
2022-10-24T20:17:31.054Z,3.40
2022-10-24T20:22:35.843Z,2.80
2022-10-24T20:27:41.229Z,3.20
2022-10-24T20:32:48.565Z,2.73
2022-10-24T20:37:53.495Z,3.13
2022-10-24T20:42:58.468Z,2.67
2022-10-24T20:48:06.252Z,3.07
2022-10-24T20:53:11.107Z,3.70
2022-10-24T20:58:16.253Z,3.00
2022-10-24T21:03:24.680Z,3.73
2022-10-24T21:08:29.722Z,3.13
2022-10-24T21:13:34.798Z,2.97
2022-10-24T21:18:42.419Z,3.10
2022-10-24T21:23:48.052Z,2.17
2022-10-24T21:28:59.545Z,2.67
2022-10-24T21:34:23.848Z,2.80
2022-10-24T21:39:29.018Z,3.23
2022-10-24T21:44:33.927Z,2.77
2022-10-24T21:49:41.348Z,2.40
2022-10-24T21:54:46.169Z,2.20
2022-10-24T21:59:51.257Z,3.20
2022-10-24T22:04:58.672Z,2.87
2022-10-24T22:10:04.965Z,2.90
2022-10-24T22:15:10.829Z,3.23
2022-10-24T22:20:18.324Z,2.10
2022-10-24T22:25:23.168Z,2.60
2022-10-24T22:30:27.966Z,2.83
2022-10-24T22:35:39.259Z,2.90
2022-10-24T22:40:46.338Z,2.80
2022-10-24T22:46:00.428Z,2.27
2022-10-24T22:51:08.327Z,2.20
2022-10-24T22:56:19.886Z,2.67
2022-10-24T23:01:34.049Z,2.90
2022-10-24T23:06:47.301Z,3.17
2022-10-24T23:11:52.571Z,2.20
2022-10-24T23:17:01.608Z,2.40
2022-10-24T23:22:18.163Z,2.90
2022-10-24T23:27:34.503Z,2.03
2022-10-24T23:32:41.732Z,2.10
2022-10-24T23:37:51.654Z,2.53
2022-10-24T23:43:00.704Z,2.30
2022-10-24T23:48:21.398Z,2.70
2022-10-24T23:53:39.821Z,2.27
2022-10-24T23:58:44.976Z,2.00
